Varna, Bulgaria
Current Conditions -  °F | °C
As of 1:00 PM on Wednesday 26 Nov 2014 (Local Time) from LBWN Reporting Station
Broken Clouds Broken Clouds  
Wind Chill: 21°   Ceiling: 3600
Heat Index: 32°   Visibility: 6mi
Dew Point: 25°   Wind: 16mph
Humidity: 75%   Direction: 310°NW
Pressure: 30.3"   Gusts: NA
Location:  43.21°N, 27.9°E
Report Text: LBWN 261000Z 31007MPS 9999 FEW024 SCT031 BKN036 M00/M04 Q1026 NOSIG
Loading
Personal Weather Stations






























Interactive Weather Map New forecast layout! Learn more

10-Day Weather Forecast

Advertisements
Track Severe Weather on mobile